createdAt,value
2022-11-19T00:01:27.995Z,19.35
2022-11-19T00:03:55.388Z,19.23
2022-11-19T00:06:27.572Z,16.67
2022-11-19T00:08:55.517Z,20.58
2022-11-19T00:11:44.165Z,22.73
2022-11-19T00:14:13.420Z,20.98
2022-11-19T00:16:41.456Z,20.02
2022-11-19T00:19:10.372Z,19.90
2022-11-19T00:21:37.525Z,17.52
2022-11-19T00:24:05.116Z,19.88
2022-11-19T00:26:32.155Z,17.85
2022-11-19T00:28:59.227Z,16.90
2022-11-19T00:31:26.225Z,16.80
2022-11-19T00:33:54.678Z,16.65
2022-11-19T00:36:23.165Z,15.85
2022-11-19T00:38:50.390Z,21.52
2022-11-19T00:41:17.530Z,20.13
2022-11-19T00:43:47.501Z,17.55
2022-11-19T00:46:15.768Z,22.80
2022-11-19T00:48:43.413Z,17.00
2022-11-19T00:51:11.586Z,17.05
2022-11-19T00:53:44.363Z,15.52
2022-11-19T00:56:15.554Z,15.27
2022-11-19T00:58:43.719Z,16.52
2022-11-19T01:01:11.583Z,15.43
2022-11-19T01:03:41.201Z,16.70
2022-11-19T01:06:14.248Z,17.73
2022-11-19T01:08:45.802Z,19.50
2022-11-19T01:11:16.206Z,18.10
2022-11-19T01:13:43.328Z,23.10
2022-11-19T01:16:13.988Z,16.45
2022-11-19T01:18:42.380Z,15.20
2022-11-19T01:21:11.731Z,21.33
2022-11-19T01:23:40.075Z,19.50
2022-11-19T01:26:07.986Z,19.23
2022-11-19T01:28:35.254Z,19.67
2022-11-19T01:31:11.179Z,20.35
2022-11-19T01:33:38.780Z,20.85
2022-11-19T01:36:08.687Z,21.52
2022-11-19T01:38:35.630Z,19.65
2022-11-19T01:41:02.649Z,19.08
2022-11-19T01:43:49.589Z,17.38
2022-11-19T01:46:21.757Z,20.90
2022-11-19T01:49:04.173Z,20.25
2022-11-19T01:51:36.668Z,20.55
2022-11-19T01:54:26.416Z,22.00
2022-11-19T01:56:55.901Z,21.75
2022-11-19T01:59:23.682Z,18.63
2022-11-19T02:01:51.354Z,19.92
2022-11-19T02:04:20.584Z,20.88
2022-11-19T02:06:48.279Z,20.90
2022-11-19T02:09:15.417Z,22.40
2022-11-19T02:12:01.116Z,19.67
2022-11-19T02:14:56.435Z,19.75
2022-11-19T02:17:32.206Z,22.88
2022-11-19T02:20:17.277Z,20.48
2022-11-19T02:23:03.045Z,16.55
2022-11-19T02:25:39.418Z,18.65
2022-11-19T02:28:37.194Z,19.67
2022-11-19T02:31:15.158Z,17.55
2022-11-19T02:33:57.875Z,22.23
2022-11-19T02:36:47.403Z,20.75
2022-11-19T02:39:31.062Z,19.67
2022-11-19T02:42:13.488Z,19.27
2022-11-19T02:45:06.753Z,16.95
2022-11-19T02:47:56.837Z,20.88
2022-11-19T02:50:55.930Z,17.15
2022-11-19T02:53:23.881Z,12.68
2022-11-19T02:56:09.371Z,12.23
2022-11-19T02:59:00.445Z,12.90
2022-11-19T03:01:48.980Z,12.52
2022-11-19T03:04:31.062Z,12.88
2022-11-19T03:07:08.555Z,11.80
2022-11-19T03:09:40.523Z,12.55
2022-11-19T03:12:36.795Z,14.45
2022-11-19T03:15:48.722Z,15.23
2022-11-19T03:18:37.267Z,14.57
2022-11-19T03:21:15.239Z,16.42
2022-11-19T03:24:06.988Z,16.80
2022-11-19T03:29:10.478Z,19.77
2022-11-19T03:31:40.855Z,17.02
2022-11-19T03:34:16.782Z,16.55
2022-11-19T03:36:46.138Z,19.70
2022-11-19T03:39:18.658Z,14.82
2022-11-19T03:41:49.800Z,15.10
2022-11-19T03:44:38.790Z,14.93
2022-11-19T03:47:12.073Z,14.32
2022-11-19T03:49:43.198Z,16.65
2022-11-19T03:52:19.690Z,16.27
2022-11-19T03:54:46.723Z,14.23
2022-11-19T03:57:17.383Z,15.82
2022-11-19T03:59:45.065Z,14.53
2022-11-19T04:02:13.854Z,13.57
2022-11-19T04:04:40.945Z,12.48
2022-11-19T04:07:14.596Z,14.23
2022-11-19T04:09:42.540Z,11.23
2022-11-19T04:12:16.767Z,12.77
2022-11-19T04:14:43.942Z,12.85
2022-11-19T04:17:11.211Z,11.60
2022-11-19T04:19:38.183Z,11.40
2022-11-19T04:22:05.219Z,11.93
2022-11-19T04:24:32.250Z,11.43
2022-11-19T04:26:59.245Z,10.50
2022-11-19T04:29:26.181Z,11.10
2022-11-19T04:31:53.188Z,11.85
2022-11-19T04:34:20.213Z,10.68
2022-11-19T04:36:47.215Z,12.80
2022-11-19T04:39:14.143Z,11.90
2022-11-19T04:41:41.493Z,10.02
2022-11-19T04:44:08.455Z,12.68
2022-11-19T04:46:35.413Z,11.15
2022-11-19T04:49:02.371Z,10.35
2022-11-19T04:51:29.342Z,9.25
2022-11-19T04:53:56.359Z,10.52
2022-11-19T04:56:23.337Z,9.73
2022-11-19T04:58:50.317Z,9.23
2022-11-19T05:01:17.329Z,10.05
2022-11-19T05:03:44.280Z,9.43
2022-11-19T05:06:11.320Z,11.60
2022-11-19T05:08:38.225Z,11.40
2022-11-19T05:11:05.395Z,10.57
2022-11-19T05:13:32.377Z,8.82
2022-11-19T05:15:59.327Z,10.98
2022-11-19T05:18:26.262Z,9.75
2022-11-19T05:20:53.305Z,8.85
2022-11-19T05:23:20.631Z,9.98
2022-11-19T05:25:47.760Z,10.70
2022-11-19T05:28:14.761Z,10.32
2022-11-19T05:30:41.751Z,10.32
2022-11-19T05:33:08.954Z,8.95
2022-11-19T05:35:36.374Z,10.45
2022-11-19T05:38:03.461Z,11.10
2022-11-19T05:40:30.391Z,9.43
2022-11-19T05:42:57.316Z,8.90
2022-11-19T05:45:24.330Z,9.45
2022-11-19T05:47:55.019Z,8.65
2022-11-19T05:50:22.267Z,9.52
2022-11-19T05:52:50.630Z,11.18
2022-11-19T05:55:17.596Z,11.23
2022-11-19T05:57:44.544Z,10.18
2022-11-19T06:00:12.182Z,13.10
2022-11-19T06:02:41.821Z,11.25
2022-11-19T06:05:09.459Z,11.32
2022-11-19T06:07:36.439Z,11.20
2022-11-19T06:10:03.608Z,11.18
2022-11-19T06:12:30.558Z,11.35
2022-11-19T06:14:57.591Z,10.93
2022-11-19T06:17:24.498Z,11.80
2022-11-19T06:19:51.773Z,12.90
2022-11-19T06:22:18.738Z,10.93
2022-11-19T06:24:45.716Z,10.32
2022-11-19T06:27:12.693Z,13.18
2022-11-19T06:29:39.625Z,10.77
2022-11-19T06:32:06.562Z,13.18
2022-11-19T06:34:33.580Z,12.90
2022-11-19T06:37:00.534Z,9.85
2022-11-19T06:39:27.467Z,10.73
2022-11-19T06:41:54.466Z,12.07
2022-11-19T06:44:21.420Z,10.38
2022-11-19T06:46:48.380Z,10.07
2022-11-19T06:49:19.905Z,12.70
2022-11-19T06:51:47.212Z,15.57
2022-11-19T06:54:14.242Z,13.00
2022-11-19T06:56:41.249Z,16.75
2022-11-19T06:59:08.170Z,15.57
2022-11-19T07:01:35.198Z,18.60
2022-11-19T07:04:02.160Z,16.48
2022-11-19T07:06:29.086Z,16.83
2022-11-19T07:08:56.034Z,17.65
2022-11-19T07:11:28.751Z,19.17
2022-11-19T07:13:57.685Z,14.70
2022-11-19T07:16:26.544Z,19.45
2022-11-19T07:18:53.484Z,16.48
2022-11-19T07:21:20.556Z,16.90
2022-11-19T07:23:47.491Z,18.25
2022-11-19T07:26:14.903Z,16.50
2022-11-19T07:28:42.553Z,18.27
2022-11-19T07:31:09.721Z,17.13
2022-11-19T07:33:39.216Z,18.58
2022-11-19T07:36:09.317Z,18.15
2022-11-19T07:38:39.162Z,18.88
2022-11-19T07:41:26.824Z,19.15
2022-11-19T07:43:54.142Z,18.40
2022-11-19T07:46:21.168Z,22.52
2022-11-19T07:48:48.139Z,19.80
2022-11-19T07:51:15.085Z,23.13
2022-11-19T07:53:42.881Z,23.67
2022-11-19T07:56:09.893Z,24.25
2022-11-19T07:58:36.873Z,26.02
2022-11-19T08:01:11.898Z,24.27
2022-11-19T08:03:39.029Z,25.75
2022-11-19T08:06:06.849Z,25.98
2022-11-19T08:08:34.020Z,24.60
2022-11-19T08:11:09.107Z,24.10
2022-11-19T08:13:36.892Z,25.38
2022-11-19T08:16:05.595Z,33.33
2022-11-19T08:18:32.727Z,25.17
2022-11-19T08:21:09.172Z,27.98
2022-11-19T08:23:37.251Z,26.38
2022-11-19T08:26:06.889Z,29.35
2022-11-19T08:28:33.919Z,34.22
2022-11-19T08:31:08.533Z,26.70
2022-11-19T08:33:36.297Z,26.80
2022-11-19T08:36:03.880Z,35.80
2022-11-19T08:38:34.599Z,41.15
2022-11-19T08:41:23.926Z,40.58
2022-11-19T08:43:50.893Z,31.92
2022-11-19T08:46:17.861Z,32.83
2022-11-19T08:48:44.864Z,37.67
2022-11-19T08:51:14.781Z,39.45
2022-11-19T08:53:42.038Z,37.88
2022-11-19T08:56:17.885Z,45.88
2022-11-19T08:58:45.346Z,39.15
2022-11-19T09:01:15.096Z,40.13
2022-11-19T09:03:42.308Z,42.42
2022-11-19T09:06:09.658Z,41.85
2022-11-19T09:08:36.658Z,60.13
2022-11-19T09:11:08.875Z,45.08
2022-11-19T09:13:36.365Z,54.17
2022-11-19T09:16:03.800Z,47.47
2022-11-19T09:18:32.649Z,47.42
2022-11-19T09:20:59.980Z,46.00
2022-11-19T09:23:27.602Z,51.50
2022-11-19T09:25:59.293Z,42.03
2022-11-19T09:28:27.627Z,40.15
2022-11-19T09:30:59.115Z,37.17
2022-11-19T09:35:53.565Z,49.88
2022-11-19T09:38:20.918Z,52.05
2022-11-19T09:40:52.773Z,53.55
2022-11-19T09:43:41.422Z,56.80
2022-11-19T09:46:24.446Z,48.25
2022-11-19T09:48:55.760Z,47.58
2022-11-19T09:51:29.955Z,61.90
2022-11-19T09:54:05.814Z,48.53
2022-11-19T09:56:39.026Z,41.13
2022-11-19T09:59:25.123Z,47.53
2022-11-19T10:01:53.239Z,45.17
2022-11-19T10:04:26.767Z,44.35
2022-11-19T10:07:30.417Z,46.33
2022-11-19T10:10:20.992Z,47.25
2022-11-19T10:12:50.818Z,44.10
2022-11-19T10:15:27.043Z,42.20
2022-11-19T10:17:58.060Z,49.03
2022-11-19T10:20:55.101Z,49.75
2022-11-19T10:23:40.814Z,44.58
2022-11-19T10:26:13.318Z,45.70
2022-11-19T10:28:43.820Z,41.72
2022-11-19T10:31:36.984Z,42.07
2022-11-19T10:34:15.436Z,36.97
2022-11-19T10:37:07.573Z,38.38
2022-11-19T10:39:51.748Z,42.22
2022-11-19T10:42:30.232Z,32.10
2022-11-19T10:45:03.191Z,29.55
2022-11-19T10:48:09.556Z,37.58
2022-11-19T10:50:37.009Z,30.60
2022-11-19T10:53:29.280Z,30.30
2022-11-19T10:56:06.515Z,33.13
2022-11-19T10:58:42.775Z,30.25
2022-11-19T11:01:34.937Z,25.92
2022-11-19T11:04:13.204Z,28.60
2022-11-19T11:07:01.327Z,23.33
2022-11-19T11:09:34.364Z,26.90
2022-11-19T11:12:35.171Z,26.58
2022-11-19T11:15:18.994Z,22.92
2022-11-19T11:17:49.559Z,27.33
2022-11-19T11:20:17.137Z,26.20
2022-11-19T11:22:49.904Z,23.15
2022-11-19T11:25:26.257Z,28.02
2022-11-19T11:28:06.866Z,27.63
2022-11-19T11:30:34.757Z,27.70
2022-11-19T11:33:40.068Z,30.52
2022-11-19T11:36:16.332Z,26.08
2022-11-19T11:38:46.144Z,24.65
2022-11-19T11:44:05.855Z,22.35
2022-11-19T11:46:57.232Z,23.23
2022-11-19T11:49:28.693Z,27.70
2022-11-19T11:54:25.186Z,22.73
2022-11-19T11:56:52.132Z,18.65
2022-11-19T11:59:29.912Z,19.17
2022-11-19T12:02:02.172Z,23.95
2022-11-19T12:04:29.712Z,17.50
2022-11-19T12:07:12.063Z,20.27
2022-11-19T12:09:48.511Z,21.63
2022-11-19T12:12:26.290Z,19.08
2022-11-19T12:15:43.229Z,16.10
2022-11-19T12:18:32.302Z,15.27
2022-11-19T12:21:06.338Z,17.23
2022-11-19T12:24:04.130Z,16.17
2022-11-19T12:26:45.862Z,19.17
2022-11-19T12:29:58.022Z,17.55
2022-11-19T12:32:42.019Z,17.60
2022-11-19T12:35:33.613Z,17.13
2022-11-19T12:40:46.117Z,15.30
2022-11-19T12:43:45.042Z,17.80
2022-11-19T12:46:46.912Z,17.73
2022-11-19T12:49:32.206Z,18.17
2022-11-19T12:52:11.088Z,17.83
2022-11-19T12:55:27.817Z,15.48
2022-11-19T12:58:12.464Z,17.17
2022-11-19T13:00:45.561Z,15.98
2022-11-19T13:03:25.055Z,15.93
2022-11-19T13:06:02.736Z,16.25
2022-11-19T13:08:43.695Z,16.95
2022-11-19T13:11:22.783Z,13.85
2022-11-19T13:13:58.678Z,19.08
2022-11-19T13:16:28.678Z,16.52
2022-11-19T13:19:23.276Z,14.20
2022-11-19T13:21:58.790Z,15.30
2022-11-19T13:24:35.284Z,15.68
2022-11-19T13:27:05.339Z,14.07
2022-11-19T13:30:02.767Z,14.48
2022-11-19T13:32:42.573Z,12.30
2022-11-19T13:35:16.870Z,15.60
2022-11-19T13:38:08.598Z,16.85
2022-11-19T13:43:37.232Z,15.43
2022-11-19T13:49:02.602Z,14.85
2022-11-19T13:51:33.771Z,16.27
2022-11-19T13:54:03.771Z,25.05
2022-11-19T13:56:43.856Z,17.20
2022-11-19T13:59:36.984Z,15.38
2022-11-19T14:02:18.748Z,14.20
2022-11-19T14:05:15.747Z,15.80
2022-11-19T14:07:51.576Z,13.18
2022-11-19T14:10:32.866Z,17.17
2022-11-19T14:13:08.836Z,16.08
2022-11-19T14:16:21.677Z,15.50
2022-11-19T14:19:30.067Z,15.82
2022-11-19T14:22:17.102Z,15.02
2022-11-19T14:25:02.620Z,16.58
2022-11-19T14:27:29.508Z,19.58
2022-11-19T14:30:07.113Z,16.05
2022-11-19T14:32:46.431Z,20.10
2022-11-19T14:35:23.051Z,17.73
2022-11-19T14:37:54.034Z,18.42
2022-11-19T14:40:21.385Z,19.20
2022-11-19T14:43:19.133Z,18.90
2022-11-19T14:46:09.221Z,19.63
2022-11-19T14:48:51.904Z,16.05
2022-11-19T14:51:28.350Z,23.08
2022-11-19T14:54:08.159Z,25.73
2022-11-19T14:56:38.043Z,23.77
2022-11-19T14:59:22.084Z,24.08
2022-11-19T15:02:03.705Z,26.83
2022-11-19T15:04:42.164Z,22.27
2022-11-19T15:07:12.512Z,20.88
2022-11-19T15:10:10.477Z,25.00
2022-11-19T15:12:43.418Z,16.75
2022-11-19T15:15:19.580Z,17.35
2022-11-19T15:18:02.503Z,17.40
2022-11-19T15:20:47.931Z,18.38
2022-11-19T15:23:24.292Z,20.50
2022-11-19T15:25:57.372Z,17.13
2022-11-19T15:28:24.770Z,18.27
2022-11-19T15:31:09.254Z,22.45
2022-11-19T15:33:39.773Z,20.80
2022-11-19T15:36:58.032Z,21.73
2022-11-19T15:39:39.510Z,24.45
2022-11-19T15:42:15.441Z,22.15
2022-11-19T15:44:46.470Z,19.80
2022-11-19T15:47:25.702Z,23.90
2022-11-19T15:49:53.801Z,22.02
2022-11-19T15:52:27.791Z,24.48
2022-11-19T15:55:19.866Z,26.95
2022-11-19T15:57:50.218Z,21.48
2022-11-19T16:00:22.811Z,20.83
2022-11-19T16:02:51.570Z,20.05
2022-11-19T16:05:21.828Z,24.20
2022-11-19T16:07:49.895Z,20.00
2022-11-19T16:10:31.017Z,21.20
2022-11-19T16:13:37.264Z,21.35
2022-11-19T16:16:23.565Z,23.45
2022-11-19T16:18:52.439Z,22.55
2022-11-19T16:21:29.760Z,23.08
2022-11-19T16:24:15.944Z,23.88
2022-11-19T16:26:44.382Z,25.58
2022-11-19T16:29:22.147Z,25.55
2022-11-19T16:31:56.861Z,24.65
2022-11-19T16:34:30.180Z,28.75
2022-11-19T16:36:57.592Z,28.13
2022-11-19T16:39:27.647Z,25.02
2022-11-19T16:42:18.774Z,27.75
2022-11-19T16:44:50.576Z,26.50
2022-11-19T16:47:29.831Z,29.90
2022-11-19T16:50:08.084Z,29.35
2022-11-19T16:52:40.616Z,25.10
2022-11-19T16:55:28.951Z,31.90
2022-11-19T16:58:00.533Z,29.52
2022-11-19T17:00:36.246Z,27.75
2022-11-19T17:03:21.839Z,24.63
2022-11-19T17:05:52.107Z,27.00
2022-11-19T17:08:30.117Z,27.67
2022-11-19T17:11:36.783Z,23.15
2022-11-19T17:14:20.091Z,23.60
2022-11-19T17:16:53.043Z,26.50
2022-11-19T17:19:31.873Z,24.98
2022-11-19T17:22:04.015Z,20.33
2022-11-19T17:24:34.697Z,22.08
2022-11-19T17:27:02.312Z,22.58
2022-11-19T17:29:29.604Z,22.05
2022-11-19T17:31:57.054Z,25.60
2022-11-19T17:34:30.695Z,22.48
2022-11-19T17:36:58.312Z,24.60
2022-11-19T17:39:27.013Z,22.60
2022-11-19T17:42:13.969Z,22.50
2022-11-19T17:44:42.219Z,22.88
2022-11-19T17:47:22.888Z,24.48
2022-11-19T17:49:51.844Z,28.13
2022-11-19T17:52:21.613Z,31.25
2022-11-19T17:54:51.387Z,26.63
2022-11-19T17:57:18.557Z,21.25
2022-11-19T17:59:45.981Z,22.60
2022-11-19T18:02:15.750Z,19.00
2022-11-19T18:04:44.458Z,14.98
2022-11-19T18:07:15.199Z,16.98
2022-11-19T18:09:43.235Z,17.92
2022-11-19T18:12:17.133Z,19.48
2022-11-19T18:14:46.459Z,17.15
2022-11-19T18:17:16.159Z,17.35
2022-11-19T18:19:43.666Z,18.70
2022-11-19T18:22:18.486Z,18.40
2022-11-19T18:24:50.317Z,19.52
2022-11-19T18:27:18.252Z,18.13
2022-11-19T18:29:46.558Z,16.58
2022-11-19T18:32:16.902Z,16.38
2022-11-19T18:34:45.765Z,16.00
2022-11-19T18:37:13.532Z,18.45
2022-11-19T18:39:41.048Z,17.17
2022-11-19T18:42:12.281Z,20.40
2022-11-19T18:44:43.831Z,19.35
2022-11-19T18:47:14.041Z,20.73
2022-11-19T18:49:42.844Z,20.60
2022-11-19T18:52:16.399Z,23.60
2022-11-19T18:54:44.364Z,23.98
2022-11-19T18:57:13.283Z,19.90
2022-11-19T18:59:41.797Z,19.83
2022-11-19T19:02:10.913Z,18.23
2022-11-19T19:04:38.686Z,17.65
2022-11-19T19:07:06.632Z,19.30
2022-11-19T19:09:34.318Z,16.73
2022-11-19T19:12:20.945Z,15.82
2022-11-19T19:14:51.786Z,15.85
2022-11-19T19:17:20.062Z,17.40
2022-11-19T19:19:47.910Z,17.00
2022-11-19T19:22:15.922Z,18.67
2022-11-19T19:24:43.332Z,16.42
2022-11-19T19:27:11.249Z,16.52
2022-11-19T19:29:40.130Z,18.90
2022-11-19T19:32:09.746Z,17.20
2022-11-19T19:34:38.377Z,17.98
2022-11-19T19:37:07.679Z,16.95
2022-11-19T19:39:36.111Z,19.42
2022-11-19T19:42:03.338Z,20.13
2022-11-19T19:44:30.982Z,18.63
2022-11-19T19:46:59.373Z,22.58
2022-11-19T19:49:27.395Z,24.42
2022-11-19T19:52:51.570Z,20.50
2022-11-19T19:55:27.421Z,18.35
2022-11-19T19:57:57.805Z,17.08
2022-11-19T20:00:31.688Z,15.65
2022-11-19T20:03:04.057Z,16.52
2022-11-19T20:06:07.223Z,17.77
2022-11-19T20:09:21.017Z,13.48
2022-11-19T20:13:07.148Z,13.55
2022-11-19T20:16:05.520Z,16.40
2022-11-19T20:18:49.158Z,14.52
2022-11-19T20:22:24.129Z,13.00
2022-11-19T20:25:51.421Z,13.07
2022-11-19T20:29:42.709Z,10.63
2022-11-19T20:35:46.183Z,11.85
2022-11-19T20:38:50.642Z,10.05
2022-11-19T20:45:30.250Z,12.75
2022-11-19T20:52:11.211Z,12.13
2022-11-19T20:55:06.566Z,12.40
2022-11-19T20:58:09.690Z,10.90
2022-11-19T21:01:31.646Z,11.70
2022-11-19T21:04:40.533Z,15.63
2022-11-19T21:13:51.164Z,12.73
2022-11-19T21:16:38.123Z,15.20
2022-11-19T21:25:41.048Z,16.70
2022-11-19T21:28:42.568Z,14.90
2022-11-19T21:32:12.806Z,15.23
2022-11-19T21:34:41.883Z,17.13
2022-11-19T21:37:33.797Z,18.88
2022-11-19T21:40:40.789Z,18.95
2022-11-19T21:43:27.157Z,19.38
2022-11-19T21:46:43.834Z,18.63
2022-11-19T21:49:34.294Z,19.35
2022-11-19T21:52:13.260Z,21.77
2022-11-19T21:55:05.882Z,22.88
2022-11-19T21:58:05.530Z,24.20
2022-11-19T22:00:56.441Z,20.63
2022-11-19T22:03:58.693Z,20.85
2022-11-19T22:07:20.752Z,22.00
2022-11-19T22:10:01.670Z,22.98
2022-11-19T22:16:01.092Z,18.65
2022-11-19T22:18:48.927Z,21.30
2022-11-19T22:21:42.509Z,23.05
2022-11-19T22:27:23.003Z,25.65
2022-11-19T22:30:28.121Z,27.23
2022-11-19T22:33:12.846Z,25.77
2022-11-19T22:39:02.803Z,26.58
2022-11-19T22:42:10.665Z,28.48
2022-11-19T22:48:28.461Z,29.73
2022-11-19T22:51:39.439Z,29.50
2022-11-19T22:57:37.489Z,29.83
2022-11-19T23:00:21.229Z,33.13
2022-11-19T23:03:53.591Z,32.38
2022-11-19T23:06:31.247Z,33.50
2022-11-19T23:09:39.971Z,36.13
2022-11-19T23:13:20.660Z,29.80
2022-11-19T23:16:41.559Z,33.45
2022-11-19T23:19:42.224Z,32.65
2022-11-19T23:22:43.395Z,32.47
2022-11-19T23:25:34.139Z,33.55
2022-11-19T23:31:24.367Z,33.72
2022-11-19T23:34:30.014Z,35.08
2022-11-19T23:39:00.855Z,40.35
2022-11-19T23:41:42.717Z,32.75
2022-11-19T23:45:01.267Z,35.95
2022-11-19T23:47:47.420Z,30.48
2022-11-19T23:54:16.423Z,31.60
2022-11-19T23:57:04.778Z,29.90
2022-11-19T23:59:59.325Z,36.08
